sensor_id;sensor_type;location;lat;lon;timestamp;pressure;altitude;pressure_sealevel;temperature
76007;BMP280;64699;0.000;0.000;2023-04-19T00:02:12;100861.88;;;16.90
76007;BMP280;64699;0.000;0.000;2023-04-19T00:04:38;100855.63;;;16.89
76007;BMP280;64699;0.000;0.000;2023-04-19T00:07:03;100851.63;;;16.90
76007;BMP280;64699;0.000;0.000;2023-04-19T00:09:28;100844.63;;;16.89
76007;BMP280;64699;0.000;0.000;2023-04-19T00:11:53;100843.88;;;16.89
76007;BMP280;64699;0.000;0.000;2023-04-19T00:14:19;100839.16;;;16.89
76007;BMP280;64699;0.000;0.000;2023-04-19T00:16:44;100839.91;;;16.90
76007;BMP280;64699;0.000;0.000;2023-04-19T00:19:09;100824.66;;;16.89
76007;BMP280;64699;0.000;0.000;2023-04-19T00:21:35;100819.94;;;16.89
76007;BMP280;64699;0.000;0.000;2023-04-19T00:24:01;100817.19;;;16.89
76007;BMP280;64699;0.000;0.000;2023-04-19T00:26:27;100814.25;;;16.87
76007;BMP280;64699;0.000;0.000;2023-04-19T00:28:52;100808.75;;;16.87
76007;BMP280;64699;0.000;0.000;2023-04-19T00:31:17;100810.22;;;16.88
76007;BMP280;64699;0.000;0.000;2023-04-19T00:33:42;100809.47;;;16.88
76007;BMP280;64699;0.000;0.000;2023-04-19T00:36:08;100821.19;;;16.88
76007;BMP280;64699;0.000;0.000;2023-04-19T00:38:34;100821.19;;;16.88
76007;BMP280;64699;0.000;0.000;2023-04-19T00:40:59;100819.72;;;16.87
76007;BMP280;64699;0.000;0.000;2023-04-19T00:43:25;100821.19;;;16.88
76007;BMP280;64699;0.000;0.000;2023-04-19T00:45:50;100809.47;;;16.88
76007;BMP280;64699;0.000;0.000;2023-04-19T00:48:15;100813.47;;;16.87
76007;BMP280;64699;0.000;0.000;2023-04-19T00:50:41;100808.00;;;16.87
76007;BMP280;64699;0.000;0.000;2023-04-19T00:53:07;100806.75;;;16.88
76007;BMP280;64699;0.000;0.000;2023-04-19T00:55:32;100798.25;;;16.86
76007;BMP280;64699;0.000;0.000;2023-04-19T00:57:58;100796.28;;;16.86
76007;BMP280;64699;0.000;0.000;2023-04-19T01:00:23;100790.78;;;16.86
76007;BMP280;64699;0.000;0.000;2023-04-19T01:02:48;100794.75;;;16.85
76007;BMP280;64699;0.000;0.000;2023-04-19T01:05:14;100792.00;;;16.85
76007;BMP280;64699;0.000;0.000;2023-04-19T01:07:39;100781.03;;;16.85
76007;BMP280;64699;0.000;0.000;2023-04-19T01:10:04;100778.28;;;16.85
76007;BMP280;64699;0.000;0.000;2023-04-19T01:12:30;100769.34;;;16.85
76007;BMP280;64699;0.000;0.000;2023-04-19T01:14:55;100777.56;;;16.85
76007;BMP280;64699;0.000;0.000;2023-04-19T01:17:20;100776.81;;;16.84
76007;BMP280;64699;0.000;0.000;2023-04-19T01:19:45;100772.81;;;16.85
76007;BMP280;64699;0.000;0.000;2023-04-19T01:22:15;100769.34;;;16.85
76007;BMP280;64699;0.000;0.000;2023-04-19T01:24:40;100776.81;;;16.84
76007;BMP280;64699;0.000;0.000;2023-04-19T01:27:06;100778.28;;;16.85
76007;BMP280;64699;0.000;0.000;2023-04-19T01:29:31;100770.59;;;16.84
76007;BMP280;64699;0.000;0.000;2023-04-19T01:31:56;100772.59;;;16.83
76007;BMP280;64699;0.000;0.000;2023-04-19T01:34:21;100775.34;;;16.83
76007;BMP280;64699;0.000;0.000;2023-04-19T01:36:49;100776.81;;;16.84
76007;BMP280;64699;0.000;0.000;2023-04-19T01:39:15;100774.06;;;16.84
76007;BMP280;64699;0.000;0.000;2023-04-19T01:41:40;100769.84;;;16.83
76007;BMP280;64699;0.000;0.000;2023-04-19T01:44:05;100767.09;;;16.83
76007;BMP280;64699;0.000;0.000;2023-04-19T01:46:30;100760.88;;;16.83
76007;BMP280;64699;0.000;0.000;2023-04-19T01:48:56;100762.88;;;16.82
76007;BMP280;64699;0.000;0.000;2023-04-19T01:51:21;100753.38;;;16.83
76007;BMP280;64699;0.000;0.000;2023-04-19T01:53:46;100750.41;;;16.81
76007;BMP280;64699;0.000;0.000;2023-04-19T01:56:17;100751.91;;;16.82
76007;BMP280;64699;0.000;0.000;2023-04-19T01:58:42;100742.41;;;16.83
76007;BMP280;64699;0.000;0.000;2023-04-19T02:01:07;100736.69;;;16.81
76007;BMP280;64699;0.000;0.000;2023-04-19T02:03:36;100740.91;;;16.82
76007;BMP280;64699;0.000;0.000;2023-04-19T02:06:01;100746.41;;;16.82
76007;BMP280;64699;0.000;0.000;2023-04-19T02:08:26;100738.19;;;16.82
76007;BMP280;64699;0.000;0.000;2023-04-19T02:10:52;100739.44;;;16.81
76007;BMP280;64699;0.000;0.000;2023-04-19T02:13:17;100736.69;;;16.81
76007;BMP280;64699;0.000;0.000;2023-04-19T02:15:42;100740.91;;;16.82
76007;BMP280;64699;0.000;0.000;2023-04-19T02:18:07;100739.44;;;16.81
76007;BMP280;64699;0.000;0.000;2023-04-19T02:20:32;100747.66;;;16.81
76007;BMP280;64699;0.000;0.000;2023-04-19T02:22:58;100737.94;;;16.80
76007;BMP280;64699;0.000;0.000;2023-04-19T02:25:23;100736.69;;;16.81
76007;BMP280;64699;0.000;0.000;2023-04-19T02:27:48;100735.19;;;16.80
76007;BMP280;64699;0.000;0.000;2023-04-19T02:30:13;100735.91;;;16.81
76007;BMP280;64699;0.000;0.000;2023-04-19T02:32:38;100743.41;;;16.80
76007;BMP280;64699;0.000;0.000;2023-04-19T02:35:04;100748.91;;;16.80
76007;BMP280;64699;0.000;0.000;2023-04-19T02:37:29;100732.44;;;16.80
76007;BMP280;64699;0.000;0.000;2023-04-19T02:39:54;100728.22;;;16.79
76007;BMP280;64699;0.000;0.000;2023-04-19T02:42:19;100733.19;;;16.81
76007;BMP280;64699;0.000;0.000;2023-04-19T02:44:45;100724.22;;;16.80
76007;BMP280;64699;0.000;0.000;2023-04-19T02:47:10;100707.81;;;16.69
76007;BMP280;64699;0.000;0.000;2023-04-19T02:49:35;100722.19;;;16.81
76007;BMP280;64699;0.000;0.000;2023-04-19T02:52:01;100722.97;;;16.81
76007;BMP280;64699;0.000;0.000;2023-04-19T02:54:27;100721.91;;;16.84
76007;BMP280;64699;0.000;0.000;2023-04-19T02:56:52;100717.19;;;16.85
76007;BMP280;64699;0.000;0.000;2023-04-19T02:59:17;100717.94;;;16.85
76007;BMP280;64699;0.000;0.000;2023-04-19T03:01:42;100714.16;;;16.88
76007;BMP280;64699;0.000;0.000;2023-04-19T03:04:07;100710.94;;;16.90
76007;BMP280;64699;0.000;0.000;2023-04-19T03:06:33;100706.41;;;16.92
76007;BMP280;64699;0.000;0.000;2023-04-19T03:08:58;100707.38;;;16.95
76007;BMP280;64699;0.000;0.000;2023-04-19T03:11:23;100710.88;;;16.95
76007;BMP280;64699;0.000;0.000;2023-04-19T03:13:48;100696.63;;;16.97
76007;BMP280;64699;0.000;0.000;2023-04-19T03:16:14;100705.84;;;16.99
76007;BMP280;64699;0.000;0.000;2023-04-19T03:18:39;100697.88;;;17.01
76007;BMP280;64699;0.000;0.000;2023-04-19T03:21:04;100692.38;;;17.01
76007;BMP280;64699;0.000;0.000;2023-04-19T03:23:32;100690.38;;;17.02
76007;BMP280;64699;0.000;0.000;2023-04-19T03:25:58;100687.84;;;17.04
76007;BMP280;64699;0.000;0.000;2023-04-19T03:28:23;100692.84;;;17.05
76007;BMP280;64699;0.000;0.000;2023-04-19T03:30:48;100689.59;;;17.07
76007;BMP280;64699;0.000;0.000;2023-04-19T03:33:13;100681.06;;;17.10
76007;BMP280;64699;0.000;0.000;2023-04-19T03:35:38;100685.31;;;17.11
76007;BMP280;64699;0.000;0.000;2023-04-19T03:38:04;100690.28;;;17.13
76007;BMP280;64699;0.000;0.000;2023-04-19T03:40:29;100680.25;;;17.15
76007;BMP280;64699;0.000;0.000;2023-04-19T03:42:56;100679.25;;;17.18
76007;BMP280;64699;0.000;0.000;2023-04-19T03:45:21;100681.22;;;17.18
76007;BMP280;64699;0.000;0.000;2023-04-19T03:47:47;100677.50;;;17.21
76007;BMP280;64699;0.000;0.000;2023-04-19T03:50:12;100679.72;;;17.22
76007;BMP280;64699;0.000;0.000;2023-04-19T03:52:37;100671.72;;;17.24
76007;BMP280;64699;0.000;0.000;2023-04-19T03:55:02;100670.69;;;17.27
76007;BMP280;64699;0.000;0.000;2023-04-19T03:57:28;100673.63;;;17.29
76007;BMP280;64699;0.000;0.000;2023-04-19T03:59:53;100665.63;;;17.31
76007;BMP280;64699;0.000;0.000;2023-04-19T04:02:18;100659.63;;;17.33
76007;BMP280;64699;0.000;0.000;2023-04-19T04:04:44;100664.59;;;17.34
76007;BMP280;64699;0.000;0.000;2023-04-19T04:07:09;100666.09;;;17.35
76007;BMP280;64699;0.000;0.000;2023-04-19T04:09:34;100665.59;;;17.37
76007;BMP280;64699;0.000;0.000;2023-04-19T04:11:59;100666.53;;;17.39
76007;BMP280;64699;0.000;0.000;2023-04-19T04:14:25;100664.06;;;17.41
76007;BMP280;64699;0.000;0.000;2023-04-19T04:16:50;100659.25;;;17.41
76007;BMP280;64699;0.000;0.000;2023-04-19T04:19:16;100661.50;;;17.43
76007;BMP280;64699;0.000;0.000;2023-04-19T04:21:41;100653.50;;;17.45
76007;BMP280;64699;0.000;0.000;2023-04-19T04:24:07;100654.25;;;17.45
76007;BMP280;64699;0.000;0.000;2023-04-19T04:26:32;100654.47;;;17.47
76007;BMP280;64699;0.000;0.000;2023-04-19T04:28:59;100647.00;;;17.48
76007;BMP280;64699;0.000;0.000;2023-04-19T04:31:26;100645.72;;;17.49
76007;BMP280;64699;0.000;0.000;2023-04-19T04:33:51;100650.69;;;17.50
76007;BMP280;64699;0.000;0.000;2023-04-19T04:36:18;100647.94;;;17.50
76007;BMP280;64699;0.000;0.000;2023-04-19T04:38:44;100653.69;;;17.52
76007;BMP280;64699;0.000;0.000;2023-04-19T04:41:09;100655.16;;;17.53
76007;BMP280;64699;0.000;0.000;2023-04-19T04:43:36;100654.41;;;17.53
76007;BMP280;64699;0.000;0.000;2023-04-19T04:46:02;100656.66;;;17.54
76007;BMP280;64699;0.000;0.000;2023-04-19T04:48:28;100644.91;;;17.54
76007;BMP280;64699;0.000;0.000;2023-04-19T04:50:53;100649.16;;;17.55
76007;BMP280;64699;0.000;0.000;2023-04-19T04:53:18;100647.91;;;17.56
76007;BMP280;64699;0.000;0.000;2023-04-19T04:55:44;100652.66;;;17.55
76007;BMP280;64699;0.000;0.000;2023-04-19T04:58:09;100654.09;;;17.56
76007;BMP280;64699;0.000;0.000;2023-04-19T05:00:34;100650.88;;;17.58
76007;BMP280;64699;0.000;0.000;2023-04-19T05:03:00;100643.34;;;17.58
76007;BMP280;64699;0.000;0.000;2023-04-19T05:05:26;100641.88;;;17.57
76007;BMP280;64699;0.000;0.000;2023-04-19T05:07:51;100639.88;;;17.58
76007;BMP280;64699;0.000;0.000;2023-04-19T05:10:17;100636.63;;;17.59
76007;BMP280;64699;0.000;0.000;2023-04-19T05:12:42;100631.88;;;17.60
76007;BMP280;64699;0.000;0.000;2023-04-19T05:15:07;100635.88;;;17.59
76007;BMP280;64699;0.000;0.000;2023-04-19T05:17:32;100638.13;;;17.60
76007;BMP280;64699;0.000;0.000;2023-04-19T05:19:58;100629.31;;;17.62
76007;BMP280;64699;0.000;0.000;2023-04-19T05:22:23;100633.31;;;17.61
76007;BMP280;64699;0.000;0.000;2023-04-19T05:24:49;100634.09;;;17.61
76007;BMP280;64699;0.000;0.000;2023-04-19T05:27:14;100633.31;;;17.61
76007;BMP280;64699;0.000;0.000;2023-04-19T05:29:40;100636.34;;;17.63
76007;BMP280;64699;0.000;0.000;2023-04-19T05:32:05;100631.56;;;17.63
76007;BMP280;64699;0.000;0.000;2023-04-19T05:34:31;100635.56;;;17.62
76007;BMP280;64699;0.000;0.000;2023-04-19T05:36:57;100637.53;;;17.67
76007;BMP280;64699;0.000;0.000;2023-04-19T05:39:22;100637.22;;;17.71
76007;BMP280;64699;0.000;0.000;2023-04-19T05:41:48;100637.22;;;17.71
76007;BMP280;64699;0.000;0.000;2023-04-19T05:44:13;100637.22;;;17.71
76007;BMP280;64699;0.000;0.000;2023-04-19T05:46:38;100634.47;;;17.71
76007;BMP280;64699;0.000;0.000;2023-04-19T05:49:03;100635.00;;;17.69
76007;BMP280;64699;0.000;0.000;2023-04-19T05:51:28;100627.25;;;17.68
76007;BMP280;64699;0.000;0.000;2023-04-19T05:53:54;100637.00;;;17.69
76007;BMP280;64699;0.000;0.000;2023-04-19T05:56:19;100637.00;;;17.69
76007;BMP280;64699;0.000;0.000;2023-04-19T05:58:44;100641.22;;;17.70
76007;BMP280;64699;0.000;0.000;2023-04-19T06:01:10;100629.50;;;17.69
76007;BMP280;64699;0.000;0.000;2023-04-19T06:03:35;100635.72;;;17.70
76007;BMP280;64699;0.000;0.000;2023-04-19T06:06:00;100628.75;;;17.69
76007;BMP280;64699;0.000;0.000;2023-04-19T06:08:26;100637.00;;;17.69
76007;BMP280;64699;0.000;0.000;2023-04-19T06:10:51;100626.00;;;17.69
76007;BMP280;64699;0.000;0.000;2023-04-19T06:13:18;100628.03;;;17.68
76007;BMP280;64699;0.000;0.000;2023-04-19T06:15:43;100622.00;;;17.70
76007;BMP280;64699;0.000;0.000;2023-04-19T06:18:09;100616.50;;;17.70
76007;BMP280;64699;0.000;0.000;2023-04-19T06:20:38;100617.75;;;17.69
76007;BMP280;64699;0.000;0.000;2023-04-19T06:23:03;100622.00;;;17.70
76007;BMP280;64699;0.000;0.000;2023-04-19T06:25:29;100617.75;;;17.69
76007;BMP280;64699;0.000;0.000;2023-04-19T06:27:54;100626.00;;;17.69
76007;BMP280;64699;0.000;0.000;2023-04-19T06:30:19;100617.75;;;17.69
76007;BMP280;64699;0.000;0.000;2023-04-19T06:32:44;100615.00;;;17.69
76007;BMP280;64699;0.000;0.000;2023-04-19T06:35:10;100613.53;;;17.68
76007;BMP280;64699;0.000;0.000;2023-04-19T06:37:35;100615.78;;;17.69
76007;BMP280;64699;0.000;0.000;2023-04-19T06:40:00;100622.53;;;17.68
76007;BMP280;64699;0.000;0.000;2023-04-19T06:42:26;100624.00;;;17.69
76007;BMP280;64699;0.000;0.000;2023-04-19T06:44:51;100620.50;;;17.69
76007;BMP280;64699;0.000;0.000;2023-04-19T06:47:17;100620.50;;;17.69
76007;BMP280;64699;0.000;0.000;2023-04-19T06:49:42;100630.78;;;17.68
76007;BMP280;64699;0.000;0.000;2023-04-19T06:52:07;100619.78;;;17.68
76007;BMP280;64699;0.000;0.000;2023-04-19T06:54:32;100623.25;;;17.69
76007;BMP280;64699;0.000;0.000;2023-04-19T06:56:58;100626.75;;;17.69
76007;BMP280;64699;0.000;0.000;2023-04-19T06:59:23;100619.78;;;17.68
76007;BMP280;64699;0.000;0.000;2023-04-19T07:01:52;100619.00;;;17.68
76007;BMP280;64699;0.000;0.000;2023-04-19T07:04:17;100628.03;;;17.68
76007;BMP280;64699;0.000;0.000;2023-04-19T07:06:42;100622.53;;;17.68
76007;BMP280;64699;0.000;0.000;2023-04-19T07:09:08;100628.03;;;17.68
76007;BMP280;64699;0.000;0.000;2023-04-19T07:11:33;100632.75;;;17.68
76007;BMP280;64699;0.000;0.000;2023-04-19T07:13:58;100627.25;;;17.68
76007;BMP280;64699;0.000;0.000;2023-04-19T07:16:25;100629.28;;;17.67
76007;BMP280;64699;0.000;0.000;2023-04-19T07:18:50;100638.25;;;17.68
76007;BMP280;64699;0.000;0.000;2023-04-19T07:21:15;100638.25;;;17.68
76007;BMP280;64699;0.000;0.000;2023-04-19T07:23:40;100631.50;;;17.69
76007;BMP280;64699;0.000;0.000;2023-04-19T07:26:06;100637.53;;;17.67
76007;BMP280;64699;0.000;0.000;2023-04-19T07:28:31;100639.00;;;17.68
76007;BMP280;64699;0.000;0.000;2023-04-19T07:30:56;100639.00;;;17.68
76007;BMP280;64699;0.000;0.000;2023-04-19T07:33:22;100640.50;;;17.69
76007;BMP280;64699;0.000;0.000;2023-04-19T07:35:48;100635.72;;;17.70
76007;BMP280;64699;0.000;0.000;2023-04-19T07:38:14;100639.75;;;17.69
76007;BMP280;64699;0.000;0.000;2023-04-19T07:40:39;100632.75;;;17.68
76007;BMP280;64699;0.000;0.000;2023-04-19T07:43:04;100644.50;;;17.68
76007;BMP280;64699;0.000;0.000;2023-04-19T07:45:30;100634.25;;;17.69
76007;BMP280;64699;0.000;0.000;2023-04-19T07:47:56;100638.25;;;17.68
76007;BMP280;64699;0.000;0.000;2023-04-19T07:50:21;100639.75;;;17.69
76007;BMP280;64699;0.000;0.000;2023-04-19T07:52:46;100637.53;;;17.67
76007;BMP280;64699;0.000;0.000;2023-04-19T07:55:11;100640.28;;;17.67
76007;BMP280;64699;0.000;0.000;2023-04-19T07:57:36;100638.25;;;17.68
76007;BMP280;64699;0.000;0.000;2023-04-19T08:00:02;100632.75;;;17.68
76007;BMP280;64699;0.000;0.000;2023-04-19T08:02:28;100632.75;;;17.68
76007;BMP280;64699;0.000;0.000;2023-04-19T08:04:54;100625.78;;;17.67
76007;BMP280;64699;0.000;0.000;2023-04-19T08:07:20;100625.78;;;17.67
76007;BMP280;64699;0.000;0.000;2023-04-19T08:09:47;100630.00;;;17.68
76007;BMP280;64699;0.000;0.000;2023-04-19T08:12:12;100621.03;;;17.67
76007;BMP280;64699;0.000;0.000;2023-04-19T08:14:37;100625.78;;;17.67
76007;BMP280;64699;0.000;0.000;2023-04-19T08:17:04;100627.03;;;17.66
76007;BMP280;64699;0.000;0.000;2023-04-19T08:19:29;100625.00;;;17.66
76007;BMP280;64699;0.000;0.000;2023-04-19T08:21:55;100628.31;;;17.65
76007;BMP280;64699;0.000;0.000;2023-04-19T08:24:21;100630.31;;;17.64
76007;BMP280;64699;0.000;0.000;2023-04-19T08:26:46;100628.31;;;17.65
76007;BMP280;64699;0.000;0.000;2023-04-19T08:29:17;100628.31;;;17.65
76007;BMP280;64699;0.000;0.000;2023-04-19T08:31:43;100630.31;;;17.64
76007;BMP280;64699;0.000;0.000;2023-04-19T08:34:08;100634.50;;;17.65
76007;BMP280;64699;0.000;0.000;2023-04-19T08:36:33;100642.56;;;17.63
76007;BMP280;64699;0.000;0.000;2023-04-19T08:38:58;100632.31;;;17.64
76007;BMP280;64699;0.000;0.000;2023-04-19T08:41:23;100635.06;;;17.64
76007;BMP280;64699;0.000;0.000;2023-04-19T08:43:50;100646.06;;;17.64
76007;BMP280;64699;0.000;0.000;2023-04-19T08:46:15;100648.06;;;17.63
76007;BMP280;64699;0.000;0.000;2023-04-19T08:48:41;100637.06;;;17.63
76007;BMP280;64699;0.000;0.000;2023-04-19T08:51:07;100644.56;;;17.63
76007;BMP280;64699;0.000;0.000;2023-04-19T08:53:33;100643.06;;;17.62
76007;BMP280;64699;0.000;0.000;2023-04-19T08:56:00;100646.56;;;17.62
76007;BMP280;64699;0.000;0.000;2023-04-19T08:58:25;100652.81;;;17.63
76007;BMP280;64699;0.000;0.000;2023-04-19T09:00:53;100649.81;;;17.61
76007;BMP280;64699;0.000;0.000;2023-04-19T09:03:18;100647.31;;;17.63
76007;BMP280;64699;0.000;0.000;2023-04-19T09:05:44;100647.31;;;17.63
76007;BMP280;64699;0.000;0.000;2023-04-19T09:08:30;100647.31;;;17.63
76007;BMP280;64699;0.000;0.000;2023-04-19T09:10:58;100646.34;;;17.60
76007;BMP280;64699;0.000;0.000;2023-04-19T09:13:24;100654.59;;;17.60
76007;BMP280;64699;0.000;0.000;2023-04-19T09:15:51;100648.84;;;17.58
76007;BMP280;64699;0.000;0.000;2023-04-19T09:18:18;100655.09;;;17.59
76007;BMP280;64699;0.000;0.000;2023-04-19T09:20:44;100653.09;;;17.59
76007;BMP280;64699;0.000;0.000;2023-04-19T09:23:10;100663.34;;;17.59
76007;BMP280;64699;0.000;0.000;2023-04-19T09:25:36;100656.34;;;17.58
76007;BMP280;64699;0.000;0.000;2023-04-19T09:28:09;100667.34;;;17.58
76007;BMP280;64699;0.000;0.000;2023-04-19T09:30:35;100667.34;;;17.58
76007;BMP280;64699;0.000;0.000;2023-04-19T09:33:00;100663.34;;;17.59
76007;BMP280;64699;0.000;0.000;2023-04-19T09:35:46;100661.09;;;17.57
76007;BMP280;64699;0.000;0.000;2023-04-19T09:38:13;100665.09;;;17.56
76007;BMP280;64699;0.000;0.000;2023-04-19T09:40:39;100660.38;;;17.57
76007;BMP280;64699;0.000;0.000;2023-04-19T09:43:05;100660.88;;;17.55
76007;BMP280;64699;0.000;0.000;2023-04-19T09:45:40;100659.59;;;17.56
76007;BMP280;64699;0.000;0.000;2023-04-19T09:48:06;100664.41;;;17.56
76007;BMP280;64699;0.000;0.000;2023-04-19T09:50:31;100669.13;;;17.55
76007;BMP280;64699;0.000;0.000;2023-04-19T09:52:57;100667.16;;;17.56
76007;BMP280;64699;0.000;0.000;2023-04-19T09:55:22;100664.41;;;17.56
76007;BMP280;64699;0.000;0.000;2023-04-19T09:57:48;100664.13;;;17.54
76007;BMP280;64699;0.000;0.000;2023-04-19T10:00:13;100665.66;;;17.55
76007;BMP280;64699;0.000;0.000;2023-04-19T10:02:39;100669.88;;;17.56
76007;BMP280;64699;0.000;0.000;2023-04-19T10:05:05;100662.91;;;17.55
76007;BMP280;64699;0.000;0.000;2023-04-19T10:07:31;100664.13;;;17.54
76007;BMP280;64699;0.000;0.000;2023-04-19T10:09:57;100669.63;;;17.54
76007;BMP280;64699;0.000;0.000;2023-04-19T10:12:23;100659.41;;;17.54
76007;BMP280;64699;0.000;0.000;2023-04-19T10:14:50;100665.41;;;17.53
76007;BMP280;64699;0.000;0.000;2023-04-19T10:17:15;100660.66;;;17.53
76007;BMP280;64699;0.000;0.000;2023-04-19T10:19:40;100664.13;;;17.54
76007;BMP280;64699;0.000;0.000;2023-04-19T10:22:06;100644.56;;;17.39
76007;BMP280;64699;0.000;0.000;2023-04-19T10:24:32;100667.94;;;17.51
76007;BMP280;64699;0.000;0.000;2023-04-19T10:32:38;100662.44;;;17.51
76007;BMP280;64699;0.000;0.000;2023-04-19T10:35:07;100665.19;;;17.51
76007;BMP280;64699;0.000;0.000;2023-04-19T10:37:32;100665.19;;;17.51
76007;BMP280;64699;0.000;0.000;2023-04-19T10:39:58;100662.44;;;17.51
76007;BMP280;64699;0.000;0.000;2023-04-19T10:42:23;100666.44;;;17.50
76007;BMP280;64699;0.000;0.000;2023-04-19T10:47:44;100657.69;;;17.51
76007;BMP280;64699;0.000;0.000;2023-04-19T10:50:09;100650.69;;;17.50
76007;BMP280;64699;0.000;0.000;2023-04-19T10:52:34;100655.47;;;17.50
76007;BMP280;64699;0.000;0.000;2023-04-19T10:55:00;100652.72;;;17.50
76007;BMP280;64699;0.000;0.000;2023-04-19T10:57:27;100653.97;;;17.49
76007;BMP280;64699;0.000;0.000;2023-04-19T11:00:16;100652.72;;;17.50
76007;BMP280;64699;0.000;0.000;2023-04-19T11:02:42;100660.94;;;17.50
76007;BMP280;64699;0.000;0.000;2023-04-19T11:05:07;100656.72;;;17.49
76007;BMP280;64699;0.000;0.000;2023-04-19T11:07:37;100647.00;;;17.48
76007;BMP280;64699;0.000;0.000;2023-04-19T11:10:05;100663.47;;;17.48
76007;BMP280;64699;0.000;0.000;2023-04-19T11:12:30;100657.97;;;17.48
76007;BMP280;64699;0.000;0.000;2023-04-19T11:14:58;100655.22;;;17.48
76007;BMP280;64699;0.000;0.000;2023-04-19T11:17:28;100651.72;;;17.47
76007;BMP280;64699;0.000;0.000;2023-04-19T11:19:57;100655.00;;;17.46
76007;BMP280;64699;0.000;0.000;2023-04-19T11:24:51;100646.22;;;17.47
76007;BMP280;64699;0.000;0.000;2023-04-19T11:27:16;100653.72;;;17.47
76007;BMP280;64699;0.000;0.000;2023-04-19T11:29:41;100654.47;;;17.47
76007;BMP280;64699;0.000;0.000;2023-04-19T11:32:07;100656.47;;;17.47
76007;BMP280;64699;0.000;0.000;2023-04-19T11:34:35;100661.94;;;17.47
76007;BMP280;64699;0.000;0.000;2023-04-19T11:37:02;100660.50;;;17.46
76007;BMP280;64699;0.000;0.000;2023-04-19T11:39:27;100654.25;;;17.45
76007;BMP280;64699;0.000;0.000;2023-04-19T11:41:52;100668.19;;;17.47
76007;BMP280;64699;0.000;0.000;2023-04-19T11:44:17;100653.50;;;17.45
76007;BMP280;64699;0.000;0.000;2023-04-19T11:46:56;100649.50;;;17.46
76007;BMP280;64699;0.000;0.000;2023-04-19T11:49:25;100652.00;;;17.44
76007;BMP280;64699;0.000;0.000;2023-04-19T11:51:53;100648.78;;;17.45
76007;BMP280;64699;0.000;0.000;2023-04-19T11:54:18;100659.00;;;17.45
76007;BMP280;64699;0.000;0.000;2023-04-19T12:00:00;100671.25;;;17.44
76007;BMP280;64699;0.000;0.000;2023-04-19T12:02:25;100675.47;;;17.45
76007;BMP280;64699;0.000;0.000;2023-04-19T12:04:50;100670.75;;;17.45
76007;BMP280;64699;0.000;0.000;2023-04-19T12:07:16;100675.47;;;17.45
76007;BMP280;64699;0.000;0.000;2023-04-19T12:09:41;100672.00;;;17.44
76007;BMP280;64699;0.000;0.000;2023-04-19T12:12:06;100678.22;;;17.45
76007;BMP280;64699;0.000;0.000;2023-04-19T12:14:31;100676.72;;;17.44
76007;BMP280;64699;0.000;0.000;2023-04-19T12:19:32;100690.47;;;17.44
76007;BMP280;64699;0.000;0.000;2023-04-19T12:22:06;100682.22;;;17.44
76007;BMP280;64699;0.000;0.000;2023-04-19T12:24:31;100682.72;;;17.42
76007;BMP280;64699;0.000;0.000;2023-04-19T12:26:57;100683.47;;;17.43
76007;BMP280;64699;0.000;0.000;2023-04-19T12:29:22;100679.97;;;17.42
76007;BMP280;64699;0.000;0.000;2023-04-19T12:31:47;100691.72;;;17.43
76007;BMP280;64699;0.000;0.000;2023-04-19T12:34:12;100683.47;;;17.43
76007;BMP280;64699;0.000;0.000;2023-04-19T12:36:37;100682.00;;;17.42
76007;BMP280;64699;0.000;0.000;2023-04-19T12:39:03;100688.97;;;17.43
76007;BMP280;64699;0.000;0.000;2023-04-19T12:41:28;100679.25;;;17.42
76007;BMP280;64699;0.000;0.000;2023-04-19T12:43:53;100671.75;;;17.42
76007;BMP280;64699;0.000;0.000;2023-04-19T12:46:18;100676.50;;;17.42
76007;BMP280;64699;0.000;0.000;2023-04-19T12:48:44;100679.25;;;17.42
76007;BMP280;64699;0.000;0.000;2023-04-19T12:51:09;100665.50;;;17.42
76007;BMP280;64699;0.000;0.000;2023-04-19T12:53:34;100665.50;;;17.42
76007;BMP280;64699;0.000;0.000;2023-04-19T12:55:59;100660.03;;;17.42
76007;BMP280;64699;0.000;0.000;2023-04-19T12:58:25;100663.28;;;17.41
76007;BMP280;64699;0.000;0.000;2023-04-19T13:00:52;100672.28;;;17.41
76007;BMP280;64699;0.000;0.000;2023-04-19T13:03:17;100671.00;;;17.42
76007;BMP280;64699;0.000;0.000;2023-04-19T13:05:42;100669.56;;;17.41
76007;BMP280;64699;0.000;0.000;2023-04-19T13:08:07;100664.75;;;17.41
76007;BMP280;64699;0.000;0.000;2023-04-19T13:10:32;100669.56;;;17.41
76007;BMP280;64699;0.000;0.000;2023-04-19T13:12:57;100657.06;;;17.40
76007;BMP280;64699;0.000;0.000;2023-04-19T13:15:24;100664.06;;;17.41
76007;BMP280;64699;0.000;0.000;2023-04-19T13:17:49;100656.31;;;17.40
76007;BMP280;64699;0.000;0.000;2023-04-19T13:20:15;100657.06;;;17.40
76007;BMP280;64699;0.000;0.000;2023-04-19T13:22:41;100657.56;;;17.39
76007;BMP280;64699;0.000;0.000;2023-04-19T13:25:06;100661.03;;;17.39
76007;BMP280;64699;0.000;0.000;2023-04-19T13:27:31;100655.56;;;17.39
76007;BMP280;64699;0.000;0.000;2023-04-19T13:29:57;100658.28;;;17.39
76007;BMP280;64699;0.000;0.000;2023-04-19T13:32:22;100654.06;;;17.38
76007;BMP280;64699;0.000;0.000;2023-04-19T13:34:47;100656.31;;;17.40
76007;BMP280;64699;0.000;0.000;2023-04-19T13:37:12;100654.06;;;17.38
76007;BMP280;64699;0.000;0.000;2023-04-19T13:39:37;100658.81;;;17.38
76007;BMP280;64699;0.000;0.000;2023-04-19T13:42:03;100648.56;;;17.38
76007;BMP280;64699;0.000;0.000;2023-04-19T13:44:28;100654.81;;;17.39
76007;BMP280;64699;0.000;0.000;2023-04-19T13:46:54;100656.81;;;17.38
76007;BMP280;64699;0.000;0.000;2023-04-19T13:49:19;100653.34;;;17.38
76007;BMP280;64699;0.000;0.000;2023-04-19T13:51:44;100652.56;;;17.37
76007;BMP280;64699;0.000;0.000;2023-04-19T13:54:10;100647.06;;;17.37
76007;BMP280;64699;0.000;0.000;2023-04-19T13:56:35;100646.38;;;17.37
76007;BMP280;64699;0.000;0.000;2023-04-19T13:59:00;100652.56;;;17.37
76007;BMP280;64699;0.000;0.000;2023-04-19T14:01:25;100641.59;;;17.37
76007;BMP280;64699;0.000;0.000;2023-04-19T14:03:51;100637.59;;;17.38
76007;BMP280;64699;0.000;0.000;2023-04-19T14:06:16;100637.09;;;17.40
76007;BMP280;64699;0.000;0.000;2023-04-19T14:08:41;100652.81;;;17.39
76007;BMP280;64699;0.000;0.000;2023-04-19T14:11:07;100637.59;;;17.38
76007;BMP280;64699;0.000;0.000;2023-04-19T14:13:32;100630.59;;;17.37
76007;BMP280;64699;0.000;0.000;2023-04-19T14:15:57;100632.09;;;17.38
76007;BMP280;64699;0.000;0.000;2023-04-19T14:18:22;100642.34;;;17.38